Time;durP1;ratioP1;P1;durP2;ratioP2;P2;SDS_P1;SDS_P2;PMS_P1;PMS_P2;Temp;Humidity;BMP_temperature;BMP_pressure;BME280_temperature;BME280_humidity;BME280_pressure;Samples;Min_cycle;Max_cycle;Signal;HPM_P1;HPM_P2
2023/09/27 00:02:27;;;;;;;1.50;1.00;;;16.70;98.20;;;;;;4885158;29;20592;-83
2023/09/27 00:04:58;;;;;;;1.50;0.90;;;16.70;98.20;;;;;;4884962;29;20466;-83
2023/09/27 00:07:26;;;;;;;2.60;2.23;;;16.60;98.20;;;;;;4890367;29;20536;-82
2023/09/27 00:09:57;;;;;;;1.50;1.00;;;16.60;98.20;;;;;;4896436;29;20466;-82
2023/09/27 00:12:24;;;;;;;1.50;1.00;;;16.60;98.20;;;;;;4887286;29;20609;-82
2023/09/27 00:14:55;;;;;;;1.50;0.97;;;16.60;98.20;;;;;;4884435;29;20467;-82
2023/09/27 00:17:23;;;;;;;1.47;0.90;;;16.50;98.20;;;;;;4881156;29;20533;-82
2023/09/27 00:19:57;;;;;;;1.50;1.00;;;16.50;98.20;;;;;;4884220;29;20514;-82
2023/09/27 00:22:25;;;;;;;1.50;1.00;;;16.50;98.20;;;;;;4883901;29;20496;-83
2023/09/27 00:25:19;;;;;;;1.50;0.90;;;16.50;98.20;;;;;;4879565;29;20463;-82
2023/09/27 00:27:47;;;;;;;1.50;1.00;;;16.50;98.20;;;;;;4883831;29;20501;-83
2023/09/27 00:30:20;;;;;;;1.50;1.00;;;16.50;98.20;;;;;;4880245;29;20462;-82
2023/09/27 00:32:55;;;;;;;1.50;1.10;;;16.50;98.20;;;;;;4888079;29;20493;-83
2023/09/27 00:38:17;;;;;;;1.50;1.00;;;16.40;98.20;;;;;;4835710;29;20491;-81
2023/09/27 00:40:56;;;;;;;1.50;0.90;;;16.40;98.20;;;;;;4881853;29;20956;-82
2023/09/27 00:46:37;;;;;;;1.50;1.00;;;16.30;98.20;;;;;;4871111;29;20493;-82
2023/09/27 00:49:21;;;;;;;1.50;1.00;;;16.20;98.20;;;;;;4888307;29;20482;-82
2023/09/27 00:54:43;;;;;;;1.50;1.00;;;16.20;98.20;;;;;;4879971;29;20479;-81
2023/09/27 00:57:24;;;;;;;1.50;0.97;;;16.10;98.20;;;;;;4884491;29;20511;-83
2023/09/27 00:59:58;;;;;;;1.50;0.97;;;16.10;98.20;;;;;;4884743;29;20574;-82
2023/09/27 01:02:42;;;;;;;1.50;1.00;;;16.10;98.20;;;;;;4885773;29;20493;-83
2023/09/27 01:05:16;;;;;;;1.50;1.00;;;16.00;98.20;;;;;;4886345;29;20599;-82
2023/09/27 01:07:47;;;;;;;1.50;1.00;;;16.00;98.20;;;;;;4895783;29;20520;-82
2023/09/27 01:10:14;;;;;;;1.50;1.00;;;15.90;98.20;;;;;;4879173;29;20542;-82
2023/09/27 01:12:49;;;;;;;1.50;1.00;;;15.90;98.20;;;;;;4860649;29;20519;-83
2023/09/27 01:15:20;;;;;;;1.50;1.00;;;15.90;98.20;;;;;;4883280;29;20504;-82
2023/09/27 01:18:12;;;;;;;1.50;1.00;;;15.80;98.20;;;;;;4891303;29;20492;-82
2023/09/27 01:20:49;;;;;;;1.50;1.00;;;15.80;98.20;;;;;;4881797;29;20516;-82
2023/09/27 01:23:33;;;;;;;1.50;0.97;;;15.70;98.20;;;;;;4869456;29;20485;-83
2023/09/27 01:26:12;;;;;;;1.50;1.00;;;15.70;98.20;;;;;;4874718;29;20494;-82
2023/09/27 01:28:46;;;;;;;1.50;1.00;;;15.70;98.20;;;;;;4896084;29;21024;-83
2023/09/27 01:31:18;;;;;;;1.50;1.00;;;15.60;98.20;;;;;;4875495;29;20485;-82
2023/09/27 01:34:02;;;;;;;1.50;0.90;;;15.60;98.20;;;;;;4897413;29;20590;-83
2023/09/27 01:39:19;;;;;;;1.43;1.00;;;15.60;98.20;;;;;;5267295;23;20539;-82
2023/09/27 01:41:56;;;;;;;1.47;1.00;;;15.60;98.20;;;;;;4894447;29;20489;-82
2023/09/27 01:44:29;;;;;;;1.50;1.00;;;15.60;98.20;;;;;;4905367;29;20975;-80
2023/09/27 01:48:48;;;;;;;1.47;1.00;;;15.60;98.20;;;;;;5084592;27;20539;-81
2023/09/27 01:51:15;;;;;;;1.50;1.00;;;15.60;98.20;;;;;;5071663;27;21032;-81
2023/09/27 01:53:48;;;;;;;1.50;1.00;;;15.50;98.20;;;;;;5076776;28;20458;-80
2023/09/27 01:56:18;;;;;;;1.50;1.00;;;15.50;98.20;;;;;;5045013;28;20478;-81
2023/09/27 01:58:49;;;;;;;1.50;1.00;;;15.50;98.20;;;;;;5059616;28;20474;-81
2023/09/27 02:01:16;;;;;;;1.50;1.00;;;15.40;98.20;;;;;;5047972;28;20473;-80
2023/09/27 02:03:44;;;;;;;1.47;1.00;;;15.40;98.20;;;;;;5051218;28;20535;-80
2023/09/27 02:06:16;;;;;;;1.50;1.00;;;15.40;98.20;;;;;;5040718;28;20482;-80
2023/09/27 02:08:44;;;;;;;1.50;1.00;;;15.40;98.20;;;;;;5064061;28;20505;-80
2023/09/27 02:11:11;;;;;;;1.50;1.10;;;15.30;98.20;;;;;;5046026;28;20545;-80
2023/09/27 02:13:47;;;;;;;1.50;1.00;;;15.30;98.20;;;;;;5064542;28;20463;-81
2023/09/27 02:16:17;;;;;;;1.50;1.00;;;15.30;98.20;;;;;;5039519;28;21004;-80
2023/09/27 02:18:49;;;;;;;1.50;1.00;;;15.20;98.20;;;;;;5045144;28;20471;-80
2023/09/27 02:21:16;;;;;;;1.50;1.00;;;15.20;98.20;;;;;;5032914;28;20470;-80
2023/09/27 02:23:44;;;;;;;1.50;1.00;;;15.20;98.20;;;;;;5065319;28;20475;-80
2023/09/27 02:26:12;;;;;;;1.50;1.00;;;15.20;98.20;;;;;;5047463;28;20556;-82
2023/09/27 02:28:39;;;;;;;1.50;1.00;;;15.10;98.20;;;;;;5064963;28;20486;-83
2023/09/27 02:31:13;;;;;;;1.50;1.00;;;15.10;98.20;;;;;;5046387;28;20466;-83
2023/09/27 02:33:57;;;;;;;1.50;1.00;;;15.10;98.20;;;;;;5073496;28;20512;-83
2023/09/27 02:37:21;;;;;;;1.50;1.00;;;15.00;98.20;;;;;;5050633;28;20564;-84
2023/09/27 02:39:50;;;;;;;1.50;1.00;;;15.00;98.20;;;;;;5044588;28;20478;-83
2023/09/27 02:42:17;;;;;;;1.50;1.00;;;15.00;98.20;;;;;;5059039;28;20499;-82
2023/09/27 02:44:45;;;;;;;1.50;1.00;;;15.00;98.20;;;;;;5060821;28;20458;-83
2023/09/27 02:47:14;;;;;;;1.50;1.00;;;15.00;98.20;;;;;;5054566;28;20500;-83
2023/09/27 02:49:46;;;;;;;1.50;1.00;;;14.90;98.20;;;;;;5058838;28;20992;-83
2023/09/27 02:52:23;;;;;;;1.50;1.00;;;14.90;98.20;;;;;;5065470;28;20599;-83
2023/09/27 02:55:01;;;;;;;1.50;1.00;;;14.90;98.20;;;;;;5053257;28;20501;-82
2023/09/27 02:57:42;;;;;;;1.50;1.00;;;14.90;98.20;;;;;;5036454;28;20463;-81
2023/09/27 03:00:21;;;;;;;1.47;1.00;;;14.90;98.20;;;;;;5019665;28;20491;-81
2023/09/27 03:03:03;;;;;;;1.50;1.10;;;14.90;98.20;;;;;;5023311;28;20566;-81
2023/09/27 03:05:46;;;;;;;1.50;1.00;;;14.90;98.20;;;;;;5015464;28;20491;-82
2023/09/27 03:08:23;;;;;;;1.47;1.00;;;15.00;98.20;;;;;;5047315;28;20513;-82
2023/09/27 03:11:03;;;;;;;1.50;1.00;;;15.00;98.20;;;;;;5029354;28;20463;-82
2023/09/27 03:13:39;;;;;;;1.50;1.00;;;15.00;98.20;;;;;;5047402;28;20475;-82
2023/09/27 03:16:11;;;;;;;1.50;1.10;;;15.00;98.20;;;;;;5031128;28;20480;-82
2023/09/27 03:18:42;;;;;;;1.50;1.00;;;15.10;98.20;;;;;;5053548;28;20651;-82
2023/09/27 03:21:15;;;;;;;1.50;1.00;;;15.10;98.20;;;;;;5043633;28;20468;-82
2023/09/27 03:23:44;;;;;;;1.50;1.00;;;15.10;98.20;;;;;;5063151;28;20459;-82
2023/09/27 03:29:42;;;;;;;1.50;1.00;;;15.10;98.20;;;;;;5041260;28;20491;-82
2023/09/27 03:32:12;;;;;;;1.50;1.00;;;15.10;98.20;;;;;;5036018;28;20470;-83
2023/09/27 03:34:43;;;;;;;1.50;1.00;;;15.10;98.20;;;;;;5050431;28;20470;-82
2023/09/27 03:37:35;;;;;;;1.50;1.00;;;15.10;98.20;;;;;;5050526;28;20467;-82
2023/09/27 03:40:28;;;;;;;1.50;1.00;;;15.10;98.20;;;;;;5049157;28;20462;-82
2023/09/27 03:43:00;;;;;;;1.50;1.00;;;15.10;98.20;;;;;;5046172;28;20483;-82
2023/09/27 03:45:30;;;;;;;1.50;0.93;;;15.10;98.20;;;;;;5038108;28;20486;-82
2023/09/27 03:48:19;;;;;;;1.50;1.00;;;15.10;98.20;;;;;;5040173;28;21071;-82
2023/09/27 03:50:54;;;;;;;1.47;0.97;;;15.10;98.20;;;;;;5041118;28;20458;-83
2023/09/27 03:53:57;;;;;;;1.50;1.10;;;15.10;98.20;;;;;;5051529;28;20535;-82
2023/09/27 03:59:48;;;;;;;1.50;1.00;;;15.10;98.20;;;;;;5027458;28;20475;-83
2023/09/27 04:05:59;;;;;;;1.50;1.00;;;15.20;98.20;;;;;;5033124;28;20510;-83
2023/09/27 04:08:39;;;;;;;1.50;1.10;;;15.20;98.20;;;;;;5025360;28;20498;-83
2023/09/27 04:11:14;;;;;;;1.50;1.00;;;15.20;98.20;;;;;;5023602;28;20554;-83
2023/09/27 04:13:50;;;;;;;1.50;0.90;;;15.20;98.20;;;;;;5042706;28;20459;-83
2023/09/27 04:16:23;;;;;;;1.50;1.00;;;15.20;98.20;;;;;;5024155;28;20510;-83
2023/09/27 04:18:56;;;;;;;1.43;1.00;;;15.20;98.20;;;;;;5043710;28;20456;-83
2023/09/27 04:21:36;;;;;;;1.50;1.00;;;15.10;98.20;;;;;;5026164;28;20546;-83
2023/09/27 04:24:34;;;;;;;1.47;1.00;;;15.10;98.20;;;;;;5038066;28;20469;-83
2023/09/27 04:29:50;;;;;;;2.50;1.23;;;15.10;98.20;;;;;;4968779;28;21092;-83
2023/09/27 04:32:25;;;;;;;1.50;1.00;;;15.10;98.20;;;;;;4943396;28;20475;-83
2023/09/27 04:34:55;;;;;;;1.50;1.10;;;15.10;98.20;;;;;;5009320;28;20470;-83
2023/09/27 04:41:13;;;;;;;1.47;1.00;;;15.00;98.20;;;;;;5031153;28;20488;-84
2023/09/27 04:43:52;;;;;;;1.50;1.00;;;15.00;98.20;;;;;;5036568;28;20474;-83
2023/09/27 04:46:25;;;;;;;1.43;1.00;;;15.00;98.20;;;;;;5018801;28;20523;-83
2023/09/27 04:48:58;;;;;;;1.43;1.00;;;15.00;98.20;;;;;;5012631;28;20488;-83
2023/09/27 04:57:10;;;;;;;1.47;0.90;;;14.90;98.20;;;;;;4949199;28;20582;-83
2023/09/27 04:59:37;;;;;;;1.50;1.00;;;14.90;98.20;;;;;;5027311;28;20471;-83
2023/09/27 05:02:07;;;;;;;1.50;1.00;;;14.90;98.20;;;;;;5015110;28;20476;-83
2023/09/27 05:04:43;;;;;;;1.50;1.00;;;14.90;98.20;;;;;;5024988;28;20930;-83
2023/09/27 05:09:52;;;;;;;1.50;1.00;;;14.90;98.20;;;;;;4993841;28;20767;-82
2023/09/27 05:13:01;;;;;;;1.47;0.93;;;14.80;98.20;;;;;;4988696;28;20485;-83
2023/09/27 05:29:03;;;;;;;1.50;1.10;;;14.70;98.20;;;;;;4913716;29;20554;-83
2023/09/27 05:31:33;;;;;;;1.50;1.00;;;14.70;98.20;;;;;;4898875;29;20488;-83
2023/09/27 05:34:00;;;;;;;1.50;1.00;;;14.70;98.20;;;;;;4968272;28;20538;-82
2023/09/27 05:36:28;;;;;;;1.50;1.10;;;14.70;98.20;;;;;;4990112;28;20487;-83
2023/09/27 05:38:58;;;;;;;1.50;1.00;;;14.70;98.20;;;;;;5008334;28;20542;-83
2023/09/27 05:41:30;;;;;;;1.50;1.00;;;14.70;98.20;;;;;;4988531;28;20487;-83
2023/09/27 05:43:56;;;;;;;1.50;1.00;;;14.70;98.20;;;;;;5004081;28;20472;-83
2023/09/27 05:46:23;;;;;;;1.50;1.00;;;14.80;98.20;;;;;;4986710;28;21026;-83
2023/09/27 05:48:52;;;;;;;1.50;1.00;;;14.80;98.20;;;;;;5004590;28;20488;-82
2023/09/27 05:51:23;;;;;;;1.50;1.00;;;14.80;98.20;;;;;;4986032;28;20468;-83
2023/09/27 05:57:09;;;;;;;1.50;0.93;;;14.90;98.20;;;;;;4949419;28;21124;-83
2023/09/27 06:00:22;;;;;;;1.50;1.00;;;14.90;98.20;;;;;;4999674;28;20462;-83
2023/09/27 06:03:29;;;;;;;1.50;1.00;;;14.90;98.20;;;;;;4993283;28;20562;-82
2023/09/27 06:05:58;;;;;;;1.50;1.10;;;15.00;98.20;;;;;;4961443;28;20525;-80
2023/09/27 06:08:25;;;;;;;1.50;1.00;;;15.10;98.20;;;;;;5004955;28;20530;-81
2023/09/27 06:11:03;;;;;;;1.50;1.07;;;15.10;98.20;;;;;;4994243;28;20488;-81
2023/09/27 06:13:31;;;;;;;1.50;1.00;;;15.20;98.20;;;;;;4997059;28;20477;-80
2023/09/27 06:15:58;;;;;;;1.50;1.10;;;15.30;98.20;;;;;;4983360;28;20558;-81
2023/09/27 06:18:36;;;;;;;1.50;1.00;;;15.40;98.20;;;;;;5007435;28;20469;-81
2023/09/27 06:24:36;;;;;;;1.50;0.93;;;15.60;98.20;;;;;;5011928;28;20563;-79
2023/09/27 06:27:05;;;;;;;1.50;1.00;;;15.70;98.20;;;;;;5003590;28;20474;-80
2023/09/27 06:29:41;;;;;;;1.50;0.90;;;15.90;98.20;;;;;;5006204;28;20511;-81
2023/09/27 06:32:11;;;;;;;1.50;1.00;;;16.00;98.20;;;;;;4993450;28;20479;-81
2023/09/27 06:34:38;;;;;;;1.50;1.00;;;16.00;98.20;;;;;;4999433;28;20461;-81
2023/09/27 06:37:10;;;;;;;1.50;1.00;;;16.10;98.20;;;;;;4995993;28;20566;-80
2023/09/27 06:39:37;;;;;;;1.50;0.90;;;16.10;98.20;;;;;;5003084;28;20504;-80
2023/09/27 06:42:29;;;;;;;1.50;0.90;;;16.10;98.20;;;;;;5005958;28;22290;-83
2023/09/27 06:44:56;;;;;;;1.50;1.00;;;16.10;98.20;;;;;;4984986;28;20491;-81
2023/09/27 06:47:24;;;;;;;1.50;1.10;;;16.10;98.20;;;;;;4998694;28;20488;-81
2023/09/27 06:49:51;;;;;;;1.50;0.90;;;16.10;98.20;;;;;;4995298;28;20535;-80
2023/09/27 06:52:20;;;;;;;1.50;1.00;;;16.00;98.20;;;;;;4996637;28;20488;-80
2023/09/27 06:54:47;;;;;;;1.50;0.90;;;16.00;98.20;;;;;;4995738;28;20472;-81
2023/09/27 06:57:14;;;;;;;1.50;0.90;;;16.00;98.20;;;;;;4997857;28;20961;-81
2023/09/27 06:59:41;;;;;;;1.47;0.90;;;16.00;98.20;;;;;;5000845;28;20555;-81
2023/09/27 07:02:08;;;;;;;1.50;0.90;;;16.00;98.20;;;;;;4987553;28;20866;-81
2023/09/27 07:04:36;;;;;;;1.50;0.90;;;16.00;98.20;;;;;;4996451;28;20488;-81
2023/09/27 07:07:04;;;;;;;1.93;1.33;;;16.00;98.20;;;;;;4997069;28;20486;-80
2023/09/27 07:09:33;;;;;;;1.50;1.00;;;16.00;98.20;;;;;;5002380;28;20571;-80
2023/09/27 07:12:06;;;;;;;1.50;0.90;;;16.10;98.20;;;;;;4986877;28;20475;-80
2023/09/27 07:14:34;;;;;;;1.50;1.00;;;16.10;98.20;;;;;;4995503;28;20461;-81
2023/09/27 07:17:04;;;;;;;1.50;0.90;;;16.10;98.20;;;;;;4994893;28;20525;-80
2023/09/27 07:19:32;;;;;;;1.50;1.00;;;16.20;98.20;;;;;;5003369;28;20465;-81
2023/09/27 07:22:12;;;;;;;1.50;1.00;;;16.30;98.20;;;;;;4990125;28;20468;-80
2023/09/27 07:24:41;;;;;;;1.50;1.00;;;16.30;98.20;;;;;;4998450;28;20674;-81
2023/09/27 07:27:19;;;;;;;1.50;1.00;;;16.40;98.20;;;;;;4997099;28;20904;-82
2023/09/27 07:33:21;;;;;;;1.70;1.30;;;16.50;98.20;;;;;;5003278;28;20480;-81
2023/09/27 07:38:23;;;;;;;1.50;1.00;;;16.80;98.20;;;;;;5749191;23;20520;-80
2023/09/27 07:40:51;;;;;;;1.50;0.90;;;17.00;98.20;;;;;;4987970;28;20948;-80
2023/09/27 07:43:18;;;;;;;1.50;0.90;;;17.10;98.20;;;;;;5009606;28;20563;-80
2023/09/27 07:45:47;;;;;;;1.60;1.20;;;17.30;98.20;;;;;;4998480;28;20517;-80
2023/09/27 07:48:24;;;;;;;1.50;0.90;;;17.40;98.20;;;;;;4991720;28;20487;-80
2023/09/27 07:50:51;;;;;;;1.50;0.90;;;17.50;98.20;;;;;;5004729;28;20460;-81
2023/09/27 07:53:19;;;;;;;1.50;1.00;;;17.60;98.20;;;;;;4995662;28;20476;-81
2023/09/27 07:55:50;;;;;;;1.50;1.00;;;17.60;98.20;;;;;;5015018;28;20492;-81
2023/09/27 07:58:18;;;;;;;1.50;1.00;;;17.60;98.20;;;;;;5017382;28;20474;-80
2023/09/27 08:00:48;;;;;;;1.50;0.90;;;17.70;98.20;;;;;;5016789;28;20543;-82
2023/09/27 08:03:18;;;;;;;1.50;0.90;;;17.70;98.20;;;;;;4970015;28;20509;-82
2023/09/27 08:05:46;;;;;;;1.90;1.57;;;17.80;98.20;;;;;;4999223;28;20489;-82
2023/09/27 08:08:14;;;;;;;1.50;0.90;;;17.90;98.20;;;;;;4972333;28;20472;-82
2023/09/27 08:10:43;;;;;;;1.50;1.00;;;18.00;98.20;;;;;;4994913;28;20469;-81
2023/09/27 08:13:12;;;;;;;1.50;0.90;;;18.10;98.20;;;;;;5005732;28;20482;-82
2023/09/27 08:15:54;;;;;;;1.47;0.90;;;18.20;98.20;;;;;;5017178;28;20511;-83
2023/09/27 08:18:21;;;;;;;1.50;1.00;;;18.20;98.20;;;;;;4989495;28;20480;-82
2023/09/27 08:24:13;;;;;;;1.50;0.90;;;18.40;98.20;;;;;;4960303;28;20459;-81
2023/09/27 08:26:40;;;;;;;1.50;1.00;;;18.50;98.20;;;;;;5005974;28;20606;-82
2023/09/27 08:29:07;;;;;;;1.73;1.20;;;18.70;98.20;;;;;;5005882;28;20481;-81
2023/09/27 08:31:37;;;;;;;1.50;0.90;;;18.90;98.20;;;;;;4991903;28;20535;-82
2023/09/27 08:34:05;;;;;;;1.50;0.90;;;19.10;98.20;;;;;;5013558;28;20461;-81
2023/09/27 08:36:32;;;;;;;1.57;1.10;;;19.40;98.20;;;;;;5003695;28;20502;-81
2023/09/27 08:38:59;;;;;;;1.50;0.90;;;19.60;98.20;;;;;;5016625;28;21129;-81
2023/09/27 08:41:27;;;;;;;1.50;0.90;;;19.80;98.20;;;;;;5005252;28;20565;-82
2023/09/27 08:43:57;;;;;;;1.50;1.00;;;19.90;98.20;;;;;;5015615;28;20511;-82
2023/09/27 08:46:25;;;;;;;1.50;0.90;;;20.00;98.20;;;;;;5000042;28;20481;-82
2023/09/27 08:48:57;;;;;;;1.50;1.10;;;20.10;98.20;;;;;;5003188;28;20571;-82
2023/09/27 08:51:27;;;;;;;1.50;1.10;;;20.10;98.20;;;;;;5002569;28;20526;-82
2023/09/27 08:53:56;;;;;;;1.50;0.90;;;20.00;98.20;;;;;;5004154;28;20464;-83
2023/09/27 08:56:25;;;;;;;1.50;0.90;;;20.00;98.20;;;;;;5004388;28;20542;-82
2023/09/27 08:58:57;;;;;;;1.50;0.90;;;20.00;98.20;;;;;;5018354;28;20452;-81
2023/09/27 09:01:25;;;;;;;1.57;1.10;;;20.10;98.20;;;;;;5003933;28;20484;-82
2023/09/27 09:03:55;;;;;;;1.70;1.33;;;20.30;98.20;;;;;;5017344;28;20460;-81
2023/09/27 09:06:23;;;;;;;1.50;0.90;;;20.40;98.20;;;;;;5005866;28;20492;-83
2023/09/27 09:08:50;;;;;;;2.17;1.93;;;20.50;98.20;;;;;;5017878;28;20562;-81
2023/09/27 09:11:17;;;;;;;1.50;0.90;;;20.70;98.20;;;;;;5003527;28;20484;-83
2023/09/27 09:13:58;;;;;;;1.50;0.90;;;20.90;98.20;;;;;;5018831;28;20479;-82
2023/09/27 09:16:26;;;;;;;1.70;1.20;;;20.90;98.20;;;;;;5003509;28;20773;-85
2023/09/27 09:18:55;;;;;;;1.50;0.90;;;21.00;98.20;;;;;;5008188;28;20552;-80
2023/09/27 09:21:36;;;;;;;1.50;0.90;;;21.00;98.20;;;;;;5010666;28;20485;-83
2023/09/27 09:24:19;;;;;;;1.50;1.07;;;21.20;98.20;;;;;;5018012;28;20499;-83
2023/09/27 09:26:46;;;;;;;1.50;0.90;;;21.30;98.20;;;;;;4993714;28;20634;-84
2023/09/27 09:29:13;;;;;;;1.50;0.90;;;21.40;98.20;;;;;;5002034;28;20492;-82
2023/09/27 09:31:50;;;;;;;1.93;1.73;;;21.60;98.20;;;;;;4990695;28;21057;-83
2023/09/27 09:34:43;;;;;;;1.50;1.10;;;21.80;98.20;;;;;;5003134;28;20455;-83
2023/09/27 09:37:41;;;;;;;1.47;0.90;;;21.90;98.20;;;;;;5008172;28;21989;-82
2023/09/27 09:40:14;;;;;;;1.50;0.90;;;22.10;98.20;;;;;;5012082;28;20488;-83
2023/09/27 09:42:42;;;;;;;1.50;0.90;;;22.30;98.20;;;;;;5002920;28;20472;-83
2023/09/27 09:45:12;;;;;;;1.50;0.80;;;22.30;98.20;;;;;;5009795;28;20547;-83
2023/09/27 09:47:41;;;;;;;1.47;0.80;;;22.50;98.20;;;;;;4986640;28;20473;-82
2023/09/27 09:50:16;;;;;;;1.50;0.90;;;22.60;98.20;;;;;;5014017;28;20464;-82
2023/09/27 09:52:49;;;;;;;1.50;0.87;;;22.90;98.20;;;;;;4984328;28;20550;-83
2023/09/27 09:55:21;;;;;;;1.50;0.90;;;23.20;98.20;;;;;;5007205;28;20484;-82
2023/09/27 09:57:59;;;;;;;1.50;0.90;;;23.50;97.10;;;;;;4999403;28;20483;-83
2023/09/27 10:00:35;;;;;;;1.47;0.87;;;23.60;97.60;;;;;;5009455;28;20484;-83
2023/09/27 10:03:35;;;;;;;1.47;0.80;;;23.70;96.60;;;;;;5001541;28;20487;-82
2023/09/27 10:06:09;;;;;;;1.47;0.90;;;23.70;96.30;;;;;;4994254;28;20551;-83
2023/09/27 10:08:44;;;;;;;1.50;0.90;;;23.80;96.00;;;;;;5015031;28;20566;-83
2023/09/27 10:11:13;;;;;;;1.43;0.90;;;24.00;96.30;;;;;;5003961;28;20473;-84
2023/09/27 10:13:42;;;;;;;1.50;0.80;;;24.20;95.90;;;;;;5014952;28;20475;-83
2023/09/27 10:16:10;;;;;;;1.50;0.90;;;24.40;93.70;;;;;;5005765;28;20472;-83
2023/09/27 10:18:38;;;;;;;1.50;0.90;;;24.50;95.10;;;;;;5014455;28;20468;-82
2023/09/27 10:28:20;;;;;;;1.50;0.80;;;24.90;93.40;;;;;;5270094;23;20493;-85
2023/09/27 10:31:17;;;;;;;1.50;0.90;;;25.10;92.50;;;;;;4965345;28;20552;-84
2023/09/27 10:33:44;;;;;;;1.47;0.87;;;25.30;93.10;;;;;;4968461;28;20536;-83
2023/09/27 10:36:32;;;;;;;1.50;0.80;;;25.50;91.40;;;;;;4970684;28;21011;-83
2023/09/27 10:39:05;;;;;;;1.50;0.90;;;25.70;92.30;;;;;;4984611;28;20475;-83
2023/09/27 10:41:56;;;;;;;1.50;0.90;;;26.00;91.50;;;;;;4983965;28;20482;-83
2023/09/27 10:44:32;;;;;;;1.50;0.90;;;26.30;90.10;;;;;;4998827;28;20500;-83
2023/09/27 10:47:03;;;;;;;1.50;0.80;;;26.60;91.10;;;;;;4980459;28;21007;-82
2023/09/27 10:49:37;;;;;;;1.50;0.80;;;26.80;90.30;;;;;;4993587;28;20556;-83
2023/09/27 10:52:04;;;;;;;1.47;0.80;;;26.90;88.80;;;;;;4982988;28;20807;-82
2023/09/27 10:54:33;;;;;;;1.50;0.83;;;27.00;87.90;;;;;;4990827;28;20461;-83
2023/09/27 10:57:03;;;;;;;1.50;0.90;;;27.00;87.80;;;;;;4984600;28;20885;-82
2023/09/27 10:59:34;;;;;;;1.40;0.90;;;27.00;87.00;;;;;;4989263;28;21028;-83
2023/09/27 11:02:02;;;;;;;1.50;0.80;;;27.00;87.10;;;;;;4980379;28;20484;-83
2023/09/27 11:04:30;;;;;;;1.50;0.80;;;27.20;86.40;;;;;;4990930;28;20472;-83
2023/09/27 11:06:57;;;;;;;1.50;1.00;;;27.10;85.90;;;;;;4978854;28;21140;-82
2023/09/27 11:09:26;;;;;;;1.47;0.80;;;27.20;84.70;;;;;;4991706;28;20485;-83
2023/09/27 11:11:54;;;;;;;1.47;0.80;;;27.20;85.70;;;;;;4986708;28;20566;-83
2023/09/27 11:14:36;;;;;;;1.50;0.90;;;27.10;85.60;;;;;;4992946;28;20460;-82
2023/09/27 11:17:17;;;;;;;1.47;0.80;;;26.80;85.90;;;;;;4976113;28;20484;-83
2023/09/27 11:19:58;;;;;;;1.50;0.80;;;26.50;86.60;;;;;;4994047;28;20487;-83
2023/09/27 11:22:26;;;;;;;1.43;0.87;;;26.40;88.00;;;;;;4984825;28;20488;-82
2023/09/27 11:24:56;;;;;;;1.50;0.80;;;26.50;86.20;;;;;;4988965;28;20464;-83
2023/09/27 11:27:24;;;;;;;1.47;0.80;;;26.40;87.20;;;;;;4978908;28;20485;-82
2023/09/27 11:29:58;;;;;;;1.50;0.90;;;26.50;87.30;;;;;;4991256;28;20521;-84
2023/09/27 11:32:25;;;;;;;1.50;0.87;;;26.70;86.80;;;;;;4976304;28;20480;-84
2023/09/27 11:38:16;;;;;;;1.43;0.80;;;26.60;87.40;;;;;;4943030;23;20511;-83
2023/09/27 11:40:44;;;;;;;1.47;0.80;;;26.80;87.30;;;;;;4976163;28;20910;-83
2023/09/27 11:43:12;;;;;;;1.50;0.80;;;26.80;85.80;;;;;;4947361;28;20562;-83
2023/09/27 11:46:00;;;;;;;2.03;1.83;;;26.60;86.10;;;;;;4978328;28;20488;-84
2023/09/27 11:48:33;;;;;;;1.50;0.80;;;26.40;86.50;;;;;;4971255;28;20489;-83
2023/09/27 11:51:00;;;;;;;1.47;0.80;;;26.10;86.50;;;;;;4985654;28;20465;-84
2023/09/27 11:53:27;;;;;;;1.43;0.80;;;26.00;88.10;;;;;;4987269;28;20470;-84
2023/09/27 11:55:55;;;;;;;1.43;0.80;;;26.10;87.80;;;;;;4982831;28;21010;-84
2023/09/27 11:58:22;;;;;;;1.47;0.80;;;26.30;86.90;;;;;;4990111;28;20875;-83
2023/09/27 12:00:49;;;;;;;1.50;0.90;;;26.50;85.80;;;;;;4979620;28;20826;-84
2023/09/27 12:03:21;;;;;;;1.47;0.80;;;26.70;85.80;;;;;;4987987;28;20846;-83
2023/09/27 12:05:52;;;;;;;1.47;0.80;;;26.80;84.40;;;;;;4993269;28;20492;-84
2023/09/27 12:08:37;;;;;;;1.43;0.80;;;27.00;85.20;;;;;;4988127;28;20495;-83
2023/09/27 12:11:04;;;;;;;1.50;0.90;;;27.00;84.40;;;;;;4976508;28;20471;-82
2023/09/27 12:13:33;;;;;;;1.47;0.90;;;27.30;84.40;;;;;;4984449;28;20496;-82
2023/09/27 12:16:00;;;;;;;1.50;0.80;;;27.50;82.40;;;;;;4977617;28;20488;-83
2023/09/27 12:18:30;;;;;;;1.47;0.90;;;27.70;83.00;;;;;;4986917;28;21379;-82
2023/09/27 12:21:16;;;;;;;;;;;;;;;;;;;;;
2023/09/27 12:23:45;;;;;;;1.40;0.80;;;27.90;82.10;;;;;;4981161;28;20468;-87
2023/09/27 12:26:12;;;;;;;1.50;0.80;;;28.10;81.50;;;;;;4977644;28;20553;-83
2023/09/27 12:28:39;;;;;;;2.37;2.17;;;28.10;78.50;;;;;;4988238;28;20478;-82
2023/09/27 12:31:06;;;;;;;1.43;0.90;;;28.10;79.80;;;;;;4980575;28;20477;-82
2023/09/27 12:33:36;;;;;;;1.40;0.80;;;28.10;80.20;;;;;;4991769;28;20532;-85
2023/09/27 12:36:03;;;;;;;1.50;1.07;;;28.10;78.50;;;;;;4981305;28;20495;-84
2023/09/27 12:39:03;;;;;;;1.50;0.90;;;28.00;79.90;;;;;;4993715;28;20593;-84
2023/09/27 12:41:34;;;;;;;1.47;0.80;;;27.90;80.60;;;;;;4968553;28;20550;-84
2023/09/27 12:44:02;;;;;;;1.40;0.80;;;27.80;80.70;;;;;;4988663;28;20464;-83
2023/09/27 12:46:29;;;;;;;1.40;0.80;;;27.80;80.30;;;;;;4976657;28;20590;-84
2023/09/27 12:48:57;;;;;;;1.50;1.10;;;27.80;80.90;;;;;;4983985;28;20469;-83
2023/09/27 12:51:24;;;;;;;1.47;0.80;;;27.70;79.20;;;;;;4981044;28;20490;-84
2023/09/27 12:53:51;;;;;;;2.20;1.87;;;27.50;78.90;;;;;;4988601;28;20819;-84
2023/09/27 12:56:18;;;;;;;1.60;1.20;;;27.40;78.50;;;;;;4979111;28;20526;-85
2023/09/27 12:58:45;;;;;;;1.47;0.80;;;27.30;78.30;;;;;;4987112;28;20748;-83
2023/09/27 13:01:16;;;;;;;1.43;0.80;;;27.20;79.60;;;;;;4980417;28;20495;-84
2023/09/27 13:03:43;;;;;;;1.60;1.10;;;27.00;80.60;;;;;;4989682;28;20493;-83
2023/09/27 13:06:14;;;;;;;1.50;0.80;;;26.90;82.70;;;;;;4977958;28;20571;-83
2023/09/27 13:08:41;;;;;;;1.43;0.80;;;26.80;82.50;;;;;;4980740;28;20460;-84
2023/09/27 13:11:10;;;;;;;1.43;0.80;;;26.90;82.10;;;;;;4978880;28;20469;-83
2023/09/27 13:13:37;;;;;;;1.50;0.90;;;27.00;83.60;;;;;;4982007;28;20460;-83
2023/09/27 13:16:04;;;;;;;1.40;0.80;;;27.10;83.90;;;;;;4976429;28;20488;-84
2023/09/27 13:18:31;;;;;;;1.47;0.80;;;27.10;83.60;;;;;;4986354;28;20471;-85
2023/09/27 13:20:59;;;;;;;1.40;0.80;;;27.00;83.90;;;;;;4975607;28;20512;-83
2023/09/27 13:23:27;;;;;;;1.47;0.80;;;27.00;84.00;;;;;;4972011;28;20555;-84
2023/09/27 13:25:58;;;;;;;1.40;0.80;;;26.90;84.60;;;;;;4982150;28;21030;-84
2023/09/27 13:28:25;;;;;;;1.40;0.90;;;26.80;84.10;;;;;;4967131;28;20822;-82
2023/09/27 13:30:53;;;;;;;1.50;0.80;;;26.80;85.20;;;;;;4981276;28;20950;-84
2023/09/27 13:33:22;;;;;;;1.40;0.80;;;27.00;84.90;;;;;;4988930;28;20560;-84
2023/09/27 13:35:49;;;;;;;1.40;0.80;;;27.10;84.30;;;;;;4975370;28;20488;-83
2023/09/27 13:38:16;;;;;;;1.60;1.10;;;27.20;83.50;;;;;;4993151;28;20582;-83
2023/09/27 13:40:45;;;;;;;1.50;0.80;;;27.30;83.10;;;;;;4984845;28;20489;-83
2023/09/27 13:43:12;;;;;;;1.43;0.90;;;27.40;83.30;;;;;;4963105;28;20488;-83
2023/09/27 13:45:39;;;;;;;1.47;0.80;;;27.40;83.40;;;;;;4983643;28;20480;-83
2023/09/27 13:48:07;;;;;;;1.40;0.90;;;27.30;83.70;;;;;;4967834;28;20560;-84
2023/09/27 13:50:35;;;;;;;1.40;0.80;;;27.30;83.90;;;;;;4983238;28;20468;-84
2023/09/27 13:53:24;;;;;;;1.43;0.80;;;27.30;83.70;;;;;;4967109;28;20632;-83
2023/09/27 13:55:52;;;;;;;1.47;0.80;;;27.30;84.40;;;;;;4976369;28;20492;-83
2023/09/27 13:58:23;;;;;;;1.40;0.80;;;27.50;83.70;;;;;;4981060;28;20470;-85
2023/09/27 14:00:54;;;;;;;1.40;0.80;;;27.60;83.90;;;;;;4986991;28;20516;-84
2023/09/27 14:03:21;;;;;;;1.40;0.80;;;27.70;83.20;;;;;;4972073;28;20538;-84
2023/09/27 14:06:07;;;;;;;1.47;0.87;;;27.70;83.40;;;;;;4976982;28;20476;-84
2023/09/27 14:08:43;;;;;;;1.40;0.80;;;27.70;83.40;;;;;;4978543;28;20455;-84
2023/09/27 14:11:20;;;;;;;1.40;0.80;;;27.50;83.30;;;;;;4976493;28;20638;-85
2023/09/27 14:14:08;;;;;;;1.40;0.90;;;27.40;83.30;;;;;;4983742;28;20478;-83
2023/09/27 14:16:35;;;;;;;1.47;0.80;;;27.10;83.70;;;;;;4979140;28;20911;-82
2023/09/27 14:19:12;;;;;;;1.40;0.80;;;27.00;83.20;;;;;;4989056;28;20793;-83
2023/09/27 14:21:41;;;;;;;1.40;0.83;;;26.80;83.80;;;;;;4971473;28;20834;-84
2023/09/27 14:24:24;;;;;;;1.40;0.80;;;26.70;84.60;;;;;;4981428;28;20461;-83
2023/09/27 14:26:53;;;;;;;1.43;0.90;;;26.60;84.50;;;;;;4973895;28;20532;-83
2023/09/27 14:29:26;;;;;;;1.43;0.90;;;26.50;85.10;;;;;;4980970;28;20472;-84
2023/09/27 14:32:04;;;;;;;1.50;0.80;;;26.50;86.30;;;;;;4974262;28;20548;-84
2023/09/27 14:34:55;;;;;;;1.50;0.90;;;26.40;84.90;;;;;;4981420;28;20474;-82
2023/09/27 14:37:41;;;;;;;1.50;0.83;;;26.50;83.90;;;;;;4990727;28;21028;-85